sensor_id;sensor_type;location;lat;lon;timestamp;pressure;altitude;pressure_sealevel;temperature;humidity
11085;BME280;5596;46.826;8.650;2023-05-29T00:01:54;96042.13;;;15.81;100.00
11085;BME280;5596;46.826;8.650;2023-05-29T00:04:20;96041.00;;;15.72;100.00
11085;BME280;5596;46.826;8.650;2023-05-29T00:06:48;96035.28;;;15.63;100.00
11085;BME280;5596;46.826;8.650;2023-05-29T00:09:18;96038.53;;;15.60;100.00
11085;BME280;5596;46.826;8.650;2023-05-29T00:11:44;96035.81;;;15.65;100.00
11085;BME280;5596;46.826;8.650;2023-05-29T00:14:16;96039.09;;;15.67;100.00
11085;BME280;5596;46.826;8.650;2023-05-29T00:16:44;96038.81;;;15.64;100.00
11085;BME280;5596;46.826;8.650;2023-05-29T00:19:12;96032.00;;;15.61;100.00
11085;BME280;5596;46.826;8.650;2023-05-29T00:21:38;96032.81;;;15.67;100.00
11085;BME280;5596;46.826;8.650;2023-05-29T00:24:05;96039.63;;;15.69;100.00
11085;BME280;5596;46.826;8.650;2023-05-29T00:26:33;96029.56;;;15.70;100.00
11085;BME280;5596;46.826;8.650;2023-05-29T00:29:01;96028.47;;;15.71;100.00
11085;BME280;5596;46.826;8.650;2023-05-29T00:31:28;96026.03;;;15.69;100.00
11085;BME280;5596;46.826;8.650;2023-05-29T00:33:55;96031.22;;;15.71;100.00
11085;BME280;5596;46.826;8.650;2023-05-29T00:36:22;96025.50;;;15.72;100.00
11085;BME280;5596;46.826;8.650;2023-05-29T00:38:49;96017.31;;;15.77;100.00
11085;BME280;5596;46.826;8.650;2023-05-29T00:41:15;96022.78;;;15.77;100.00
11085;BME280;5596;46.826;8.650;2023-05-29T00:43:43;96031.50;;;15.79;100.00
11085;BME280;5596;46.826;8.650;2023-05-29T00:46:12;96023.03;;;15.71;100.00
11085;BME280;5596;46.826;8.650;2023-05-29T00:48:39;96023.84;;;15.66;100.00
11085;BME280;5596;46.826;8.650;2023-05-29T00:51:06;96026.56;;;15.66;100.00
11085;BME280;5596;46.826;8.650;2023-05-29T00:53:33;96016.75;;;15.65;100.00
11085;BME280;5596;46.826;8.650;2023-05-29T00:56:00;96033.09;;;15.55;100.00
11085;BME280;5596;46.826;8.650;2023-05-29T00:58:27;96030.31;;;15.45;100.00
11085;BME280;5596;46.826;8.650;2023-05-29T01:00:56;96033.00;;;15.40;100.00
11085;BME280;5596;46.826;8.650;2023-05-29T01:03:23;96027.81;;;15.33;100.00
11085;BME280;5596;46.826;8.650;2023-05-29T01:05:50;96029.72;;;15.28;100.00
11085;BME280;5596;46.826;8.650;2023-05-29T01:08:17;96026.97;;;15.18;100.00
11085;BME280;5596;46.826;8.650;2023-05-29T01:10:45;96026.41;;;15.15;100.00
11085;BME280;5596;46.826;8.650;2023-05-29T01:13:13;96023.16;;;15.19;100.00
11085;BME280;5596;46.826;8.650;2023-05-29T01:15:44;96019.38;;;15.25;100.00
11085;BME280;5596;46.826;8.650;2023-05-29T01:18:21;96020.44;;;15.19;100.00
11085;BME280;5596;46.826;8.650;2023-05-29T01:20:50;96020.16;;;15.15;100.00
11085;BME280;5596;46.826;8.650;2023-05-29T01:26:11;96028.28;;;15.10;100.00
11085;BME280;5596;46.826;8.650;2023-05-29T01:28:46;96021.50;;;15.12;100.00
11085;BME280;5596;46.826;8.650;2023-05-29T01:31:14;96029.41;;;15.14;100.00
11085;BME280;5596;46.826;8.650;2023-05-29T01:33:46;96025.88;;;15.13;100.00
11085;BME280;5596;46.826;8.650;2023-05-29T01:36:17;96025.31;;;15.11;100.00
11085;BME280;5596;46.826;8.650;2023-05-29T01:38:44;96030.47;;;15.08;100.00
11085;BME280;5596;46.826;8.650;2023-05-29T01:41:11;96030.13;;;14.94;100.00
11085;BME280;5596;46.826;8.650;2023-05-29T01:43:38;96026.81;;;14.82;100.00
11085;BME280;5596;46.826;8.650;2023-05-29T01:46:07;96025.72;;;14.78;100.00
11085;BME280;5596;46.826;8.650;2023-05-29T01:48:34;96023.00;;;14.78;100.00
11085;BME280;5596;46.826;8.650;2023-05-29T01:51:03;96030.03;;;14.74;100.00
11085;BME280;5596;46.826;8.650;2023-05-29T01:53:29;96028.38;;;14.73;100.00
11085;BME280;5596;46.826;8.650;2023-05-29T01:55:56;96028.94;;;14.75;100.00
11085;BME280;5596;46.826;8.650;2023-05-29T01:58:23;96026.47;;;14.68;100.00
11085;BME280;5596;46.826;8.650;2023-05-29T02:00:52;96033.78;;;14.63;100.00
11085;BME280;5596;46.826;8.650;2023-05-29T02:03:20;96029.44;;;14.62;100.00
11085;BME280;5596;46.826;8.650;2023-05-29T02:05:47;96038.38;;;14.57;100.00
11085;BME280;5596;46.826;8.650;2023-05-29T02:08:14;96036.19;;;14.54;100.00
11085;BME280;5596;46.826;8.650;2023-05-29T02:10:41;96036.94;;;14.45;100.00
11085;BME280;5596;46.826;8.650;2023-05-29T02:13:08;96028.94;;;14.33;100.00
11085;BME280;5596;46.826;8.650;2023-05-29T02:15:34;96033.47;;;14.22;100.00
11085;BME280;5596;46.826;8.650;2023-05-29T02:18:01;96032.13;;;14.20;100.00
11085;BME280;5596;46.826;8.650;2023-05-29T02:20:29;96027.97;;;14.12;100.00
11085;BME280;5596;46.826;8.650;2023-05-29T02:22:57;96030.44;;;14.14;100.00
11085;BME280;5596;46.826;8.650;2023-05-29T02:25:24;96037.22;;;14.11;100.00
11085;BME280;5596;46.826;8.650;2023-05-29T02:27:51;96031.72;;;14.06;100.00
11085;BME280;5596;46.826;8.650;2023-05-29T02:30:18;96035.28;;;14.07;100.00
11085;BME280;5596;46.826;8.650;2023-05-29T02:32:44;96035.59;;;14.10;100.00
11085;BME280;5596;46.826;8.650;2023-05-29T02:35:12;96036.59;;;14.04;100.00
11085;BME280;5596;46.826;8.650;2023-05-29T02:37:41;96032.22;;;13.98;100.00
11085;BME280;5596;46.826;8.650;2023-05-29T02:40:08;96034.41;;;14.01;100.00
11085;BME280;5596;46.826;8.650;2023-05-29T02:42:37;96037.72;;;14.08;100.00
11085;BME280;5596;46.826;8.650;2023-05-29T02:45:05;96034.75;;;14.10;100.00
11085;BME280;5596;46.826;8.650;2023-05-29T02:47:31;96034.66;;;13.94;100.00
11085;BME280;5596;46.826;8.650;2023-05-29T02:49:58;96035.16;;;13.91;100.00
11085;BME280;5596;46.826;8.650;2023-05-29T02:52:25;96029.47;;;13.93;100.00
11085;BME280;5596;46.826;8.650;2023-05-29T02:54:54;96030.56;;;13.97;100.00
11085;BME280;5596;46.826;8.650;2023-05-29T02:57:22;96042.56;;;14.01;100.00
11085;BME280;5596;46.826;8.650;2023-05-29T02:59:49;96042.31;;;14.02;100.00
11085;BME280;5596;46.826;8.650;2023-05-29T03:02:15;96035.50;;;14.00;100.00
11085;BME280;5596;46.826;8.650;2023-05-29T03:04:42;96040.63;;;13.96;100.00
11085;BME280;5596;46.826;8.650;2023-05-29T03:07:09;96041.44;;;13.97;100.00
11085;BME280;5596;46.826;8.650;2023-05-29T03:09:36;96039.53;;;13.97;100.00
11085;BME280;5596;46.826;8.650;2023-05-29T03:12:05;96046.84;;;13.97;100.00
11085;BME280;5596;46.826;8.650;2023-05-29T03:14:32;96036.00;;;13.97;100.00
11085;BME280;5596;46.826;8.650;2023-05-29T03:17:04;96034.38;;;13.96;100.00
11085;BME280;5596;46.826;8.650;2023-05-29T03:19:31;96029.97;;;13.90;100.00
11085;BME280;5596;46.826;8.650;2023-05-29T03:21:57;96034.00;;;13.87;100.00
11085;BME280;5596;46.826;8.650;2023-05-29T03:24:25;96038.34;;;13.83;100.00
11085;BME280;5596;46.826;8.650;2023-05-29T03:26:52;96034.94;;;13.66;100.00
11085;BME280;5596;46.826;8.650;2023-05-29T03:29:24;96040.03;;;13.62;100.00
11085;BME280;5596;46.826;8.650;2023-05-29T03:31:52;96041.19;;;13.67;100.00
11085;BME280;5596;46.826;8.650;2023-05-29T03:34:25;96042.00;;;13.67;100.00
11085;BME280;5596;46.826;8.650;2023-05-29T03:36:56;96040.03;;;13.62;100.00
11085;BME280;5596;46.826;8.650;2023-05-29T03:39:24;96040.03;;;13.62;100.00
11085;BME280;5596;46.826;8.650;2023-05-29T03:41:51;96033.53;;;13.63;100.00
11085;BME280;5596;46.826;8.650;2023-05-29T03:44:19;96036.78;;;13.60;100.00
11085;BME280;5596;46.826;8.650;2023-05-29T03:46:47;96037.25;;;13.52;100.00
11085;BME280;5596;46.826;8.650;2023-05-29T03:49:14;96048.34;;;13.51;100.00
11085;BME280;5596;46.826;8.650;2023-05-29T03:51:42;96047.06;;;13.58;100.00
11085;BME280;5596;46.826;8.650;2023-05-29T03:54:08;96038.41;;;13.61;100.00
11085;BME280;5596;46.826;8.650;2023-05-29T03:56:36;96049.81;;;13.63;100.00
11085;BME280;5596;46.826;8.650;2023-05-29T03:59:03;96045.47;;;13.62;100.00
11085;BME280;5596;46.826;8.650;2023-05-29T04:01:31;96045.22;;;13.64;100.00
11085;BME280;5596;46.826;8.650;2023-05-29T04:04:00;96050.13;;;13.67;100.00
11085;BME280;5596;46.826;8.650;2023-05-29T04:06:28;96048.75;;;13.64;100.00
11085;BME280;5596;46.826;8.650;2023-05-29T04:08:56;96058.41;;;13.55;100.00
11085;BME280;5596;46.826;8.650;2023-05-29T04:11:22;96060.53;;;13.48;100.00
11085;BME280;5596;46.826;8.650;2023-05-29T04:13:49;96059.91;;;13.41;100.00
11085;BME280;5596;46.826;8.650;2023-05-29T04:16:16;96066.34;;;13.35;100.00
11085;BME280;5596;46.826;8.650;2023-05-29T04:18:43;96070.63;;;13.31;100.00
11085;BME280;5596;46.826;8.650;2023-05-29T04:21:11;96068.41;;;13.28;100.00
11085;BME280;5596;46.826;8.650;2023-05-29T04:23:38;96077.38;;;13.29;100.00
11085;BME280;5596;46.826;8.650;2023-05-29T04:26:05;96083.38;;;13.31;100.00
11085;BME280;5596;46.826;8.650;2023-05-29T04:28:34;96082.91;;;13.39;100.00
11085;BME280;5596;46.826;8.650;2023-05-29T04:31:02;96092.44;;;13.41;100.00
11085;BME280;5596;46.826;8.650;2023-05-29T04:33:31;96091.38;;;13.42;100.00
11085;BME280;5596;46.826;8.650;2023-05-29T04:35:58;96104.13;;;13.42;100.00
11085;BME280;5596;46.826;8.650;2023-05-29T04:38:27;96098.44;;;13.43;100.00
11085;BME280;5596;46.826;8.650;2023-05-29T04:40:56;96102.97;;;13.38;100.00
11085;BME280;5596;46.826;8.650;2023-05-29T04:43:24;96103.53;;;13.40;100.00
11085;BME280;5596;46.826;8.650;2023-05-29T04:45:59;96104.94;;;13.42;100.00
11085;BME280;5596;46.826;8.650;2023-05-29T04:48:28;96104.97;;;13.47;100.00
11085;BME280;5596;46.826;8.650;2023-05-29T04:50:55;96104.75;;;13.49;100.00
11085;BME280;5596;46.826;8.650;2023-05-29T04:53:22;96106.59;;;13.43;100.00
11085;BME280;5596;46.826;8.650;2023-05-29T04:55:51;96099.75;;;13.41;100.00
11085;BME280;5596;46.826;8.650;2023-05-29T04:58:19;96105.88;;;13.31;100.00
11085;BME280;5596;46.826;8.650;2023-05-29T05:00:48;96109.63;;;13.25;100.00
11085;BME280;5596;46.826;8.650;2023-05-29T05:03:15;96111.25;;;13.26;100.00
11085;BME280;5596;46.826;8.650;2023-05-29T05:05:42;96103.94;;;13.27;100.00
11085;BME280;5596;46.826;8.650;2023-05-29T05:08:10;96116.34;;;13.22;100.00
11085;BME280;5596;46.826;8.650;2023-05-29T05:10:37;96124.44;;;13.17;100.00
11085;BME280;5596;46.826;8.650;2023-05-29T05:13:06;96112.91;;;13.10;100.00
11085;BME280;5596;46.826;8.650;2023-05-29T05:15:33;96121.84;;;13.11;100.00
11085;BME280;5596;46.826;8.650;2023-05-29T05:18:00;96113.25;;;13.14;100.00
11085;BME280;5596;46.826;8.650;2023-05-29T05:20:28;96116.44;;;13.11;100.00
11085;BME280;5596;46.826;8.650;2023-05-29T05:22:58;96113.44;;;13.07;100.00
11085;BME280;5596;46.826;8.650;2023-05-29T05:25:25;96117.78;;;13.08;100.00
11085;BME280;5596;46.826;8.650;2023-05-29T05:27:53;96121.22;;;13.04;100.00
11085;BME280;5596;46.826;8.650;2023-05-29T05:30:24;96115.75;;;12.99;100.00
11085;BME280;5596;46.826;8.650;2023-05-29T05:32:51;96112.78;;;13.00;100.00
11085;BME280;5596;46.826;8.650;2023-05-29T05:35:17;96114.44;;;13.01;100.00
11085;BME280;5596;46.826;8.650;2023-05-29T05:37:46;96114.16;;;13.03;100.00
11085;BME280;5596;46.826;8.650;2023-05-29T05:40:12;96119.03;;;13.01;100.00
11085;BME280;5596;46.826;8.650;2023-05-29T05:42:49;96115.22;;;13.02;100.00
11085;BME280;5596;46.826;8.650;2023-05-29T05:45:21;96119.16;;;13.11;100.00
11085;BME280;5596;46.826;8.650;2023-05-29T05:47:50;96111.13;;;13.16;100.00
11085;BME280;5596;46.826;8.650;2023-05-29T05:50:20;96117.44;;;13.21;100.00
11085;BME280;5596;46.826;8.650;2023-05-29T05:52:47;96114.03;;;13.31;100.00
11085;BME280;5596;46.826;8.650;2023-05-29T05:55:15;96117.94;;;13.40;100.00
11085;BME280;5596;46.826;8.650;2023-05-29T05:57:42;96121.22;;;13.42;100.00
11085;BME280;5596;46.826;8.650;2023-05-29T06:00:10;96118.19;;;13.39;100.00
11085;BME280;5596;46.826;8.650;2023-05-29T06:02:41;96125.50;;;13.38;100.00
11085;BME280;5596;46.826;8.650;2023-05-29T06:05:14;96114.97;;;13.42;100.00
11085;BME280;5596;46.826;8.650;2023-05-29T06:07:41;96118.06;;;13.50;100.00
11085;BME280;5596;46.826;8.650;2023-05-29T06:10:09;96114.00;;;13.53;100.00
11085;BME280;5596;46.826;8.650;2023-05-29T06:12:36;96119.16;;;13.54;100.00
11085;BME280;5596;46.826;8.650;2023-05-29T06:15:13;96117.81;;;13.52;100.00
11085;BME280;5596;46.826;8.650;2023-05-29T06:17:41;96106.88;;;13.47;100.00
11085;BME280;5596;46.826;8.650;2023-05-29T06:20:08;96113.75;;;13.54;100.00
11085;BME280;5596;46.826;8.650;2023-05-29T06:22:38;96114.34;;;13.61;100.00
11085;BME280;5596;46.826;8.650;2023-05-29T06:25:05;96109.63;;;13.74;100.00
11085;BME280;5596;46.826;8.650;2023-05-29T06:27:32;96116.78;;;13.85;100.00
11085;BME280;5596;46.826;8.650;2023-05-29T06:29:59;96111.47;;;13.95;100.00
11085;BME280;5596;46.826;8.650;2023-05-29T06:32:27;96118.25;;;13.97;100.00
11085;BME280;5596;46.826;8.650;2023-05-29T06:34:56;96113.91;;;13.96;100.00
11085;BME280;5596;46.826;8.650;2023-05-29T06:37:23;96114.47;;;13.98;100.00
11085;BME280;5596;46.826;8.650;2023-05-29T06:39:51;96116.94;;;14.00;100.00
11085;BME280;5596;46.826;8.650;2023-05-29T06:42:18;96112.31;;;14.00;100.00
11085;BME280;5596;46.826;8.650;2023-05-29T06:44:44;96118.84;;;14.05;100.00
11085;BME280;5596;46.826;8.650;2023-05-29T06:47:12;96118.69;;;14.11;100.00
11085;BME280;5596;46.826;8.650;2023-05-29T06:49:39;96123.56;;;14.14;100.00
11085;BME280;5596;46.826;8.650;2023-05-29T06:52:06;96114.66;;;14.19;100.00
11085;BME280;5596;46.826;8.650;2023-05-29T06:54:53;96114.75;;;14.29;100.00
11085;BME280;5596;46.826;8.650;2023-05-29T06:57:22;96117.25;;;14.35;100.00
11085;BME280;5596;46.826;8.650;2023-05-29T06:59:49;96118.31;;;14.34;100.00
11085;BME280;5596;46.826;8.650;2023-05-29T07:02:16;96114.53;;;14.35;100.00
11085;BME280;5596;46.826;8.650;2023-05-29T07:04:46;96119.78;;;14.42;100.00
11085;BME280;5596;46.826;8.650;2023-05-29T07:07:13;96112.53;;;14.53;100.00
11085;BME280;5596;46.826;8.650;2023-05-29T07:09:40;96109.31;;;14.61;100.00
11085;BME280;5596;46.826;8.650;2023-05-29T07:12:08;96117.09;;;14.89;100.00
11085;BME280;5596;46.826;8.650;2023-05-29T07:14:35;96112.13;;;15.28;100.00
11085;BME280;5596;46.826;8.650;2023-05-29T07:17:02;96114.75;;;15.65;100.00
11085;BME280;5596;46.826;8.650;2023-05-29T07:19:29;96115.38;;;16.08;100.00
11085;BME280;5596;46.826;8.650;2023-05-29T07:21:57;96116.75;;;16.36;100.00
11085;BME280;5596;46.826;8.650;2023-05-29T07:24:24;96112.69;;;16.58;100.00
11085;BME280;5596;46.826;8.650;2023-05-29T07:26:52;96112.38;;;16.85;100.00
11085;BME280;5596;46.826;8.650;2023-05-29T07:29:22;96113.97;;;17.12;100.00
11085;BME280;5596;46.826;8.650;2023-05-29T07:31:49;96106.53;;;17.32;100.00
11085;BME280;5596;46.826;8.650;2023-05-29T07:34:18;96115.72;;;17.67;100.00
11085;BME280;5596;46.826;8.650;2023-05-29T07:36:56;96114.97;;;18.00;100.00
11085;BME280;5596;46.826;8.650;2023-05-29T07:39:23;96115.91;;;18.25;100.00
11085;BME280;5596;46.826;8.650;2023-05-29T07:41:49;96110.25;;;18.50;100.00
11085;BME280;5596;46.826;8.650;2023-05-29T07:44:16;96111.78;;;18.66;100.00
11085;BME280;5596;46.826;8.650;2023-05-29T07:46:45;96114.03;;;18.88;99.78
11085;BME280;5596;46.826;8.650;2023-05-29T07:49:42;96110.91;;;19.00;98.14
11085;BME280;5596;46.826;8.650;2023-05-29T07:52:09;96113.00;;;19.08;98.67
11085;BME280;5596;46.826;8.650;2023-05-29T07:54:36;96116.06;;;19.30;98.66
11085;BME280;5596;46.826;8.650;2023-05-29T07:57:05;96119.84;;;19.34;96.68
11085;BME280;5596;46.826;8.650;2023-05-29T07:59:37;96112.69;;;19.38;95.11
11085;BME280;5596;46.826;8.650;2023-05-29T08:02:07;96107.09;;;19.48;96.01
11085;BME280;5596;46.826;8.650;2023-05-29T08:04:49;96104.88;;;19.50;94.51
11085;BME280;5596;46.826;8.650;2023-05-29T08:07:16;96102.56;;;19.62;95.52
11085;BME280;5596;46.826;8.650;2023-05-29T08:09:42;96108.97;;;19.53;96.57
11085;BME280;5596;46.826;8.650;2023-05-29T08:12:09;96107.91;;;19.73;93.38
11085;BME280;5596;46.826;8.650;2023-05-29T08:14:36;96107.75;;;19.83;91.39
11085;BME280;5596;46.826;8.650;2023-05-29T08:17:03;96111.13;;;19.98;92.83
11085;BME280;5596;46.826;8.650;2023-05-29T08:19:32;96104.22;;;20.01;92.73
11085;BME280;5596;46.826;8.650;2023-05-29T08:21:59;96110.72;;;19.86;93.63
11085;BME280;5596;46.826;8.650;2023-05-29T08:24:25;96101.97;;;19.84;93.32
11085;BME280;5596;46.826;8.650;2023-05-29T08:26:53;96101.41;;;20.06;93.24
11085;BME280;5596;46.826;8.650;2023-05-29T08:29:20;96104.94;;;20.25;89.57
11085;BME280;5596;46.826;8.650;2023-05-29T08:31:47;96102.34;;;20.53;91.32
11085;BME280;5596;46.826;8.650;2023-05-29T08:34:14;96114.25;;;20.81;86.21
11085;BME280;5596;46.826;8.650;2023-05-29T08:36:43;96097.66;;;20.72;85.90
11085;BME280;5596;46.826;8.650;2023-05-29T08:39:10;96103.03;;;20.77;86.25
11085;BME280;5596;46.826;8.650;2023-05-29T08:41:39;96102.47;;;20.94;88.46
11085;BME280;5596;46.826;8.650;2023-05-29T08:44:08;96097.59;;;20.91;85.36
11085;BME280;5596;46.826;8.650;2023-05-29T08:46:40;96108.56;;;20.91;86.36
11085;BME280;5596;46.826;8.650;2023-05-29T08:49:07;96100.63;;;20.89;85.50
11085;BME280;5596;46.826;8.650;2023-05-29T08:51:37;96097.91;;;21.03;84.68
11085;BME280;5596;46.826;8.650;2023-05-29T08:54:05;96103.13;;;21.18;84.16
11085;BME280;5596;46.826;8.650;2023-05-29T08:56:32;96095.28;;;21.11;84.82
11085;BME280;5596;46.826;8.650;2023-05-29T08:59:01;96098.53;;;21.00;83.14
11085;BME280;5596;46.826;8.650;2023-05-29T09:01:29;96096.91;;;21.12;85.14
11085;BME280;5596;46.826;8.650;2023-05-29T09:03:56;96102.13;;;21.28;84.30
11085;BME280;5596;46.826;8.650;2023-05-29T09:06:23;96102.25;;;21.50;83.65
11085;BME280;5596;46.826;8.650;2023-05-29T09:08:51;96098.59;;;21.68;83.32
11085;BME280;5596;46.826;8.650;2023-05-29T09:11:19;96097.97;;;21.71;79.20
11085;BME280;5596;46.826;8.650;2023-05-29T09:13:47;96100.50;;;21.54;79.91
11085;BME280;5596;46.826;8.650;2023-05-29T09:16:14;96102.44;;;21.53;80.18
11085;BME280;5596;46.826;8.650;2023-05-29T09:18:42;96092.91;;;21.51;82.10
11085;BME280;5596;46.826;8.650;2023-05-29T09:21:15;96099.00;;;21.48;79.29
11085;BME280;5596;46.826;8.650;2023-05-29T09:23:51;96094.72;;;21.56;77.38
11085;BME280;5596;46.826;8.650;2023-05-29T09:26:20;96092.38;;;21.63;78.57
11085;BME280;5596;46.826;8.650;2023-05-29T09:28:47;96091.00;;;21.87;79.82
11085;BME280;5596;46.826;8.650;2023-05-29T09:31:14;96096.03;;;21.85;77.64
11085;BME280;5596;46.826;8.650;2023-05-29T09:33:46;96100.63;;;21.76;78.40
11085;BME280;5596;46.826;8.650;2023-05-29T09:36:19;96093.66;;;21.79;78.05
11085;BME280;5596;46.826;8.650;2023-05-29T09:38:46;96086.75;;;21.81;78.76
11085;BME280;5596;46.826;8.650;2023-05-29T09:41:13;96095.91;;;21.90;79.42
11085;BME280;5596;46.826;8.650;2023-05-29T09:43:42;96083.09;;;22.00;77.99
11085;BME280;5596;46.826;8.650;2023-05-29T09:46:12;96090.59;;;22.08;78.57
11085;BME280;5596;46.826;8.650;2023-05-29T09:48:41;96094.47;;;22.07;77.14
11085;BME280;5596;46.826;8.650;2023-05-29T09:51:12;96087.94;;;22.16;76.70
11085;BME280;5596;46.826;8.650;2023-05-29T09:53:46;96085.47;;;22.15;76.18
11085;BME280;5596;46.826;8.650;2023-05-29T09:56:13;96088.59;;;22.00;78.08
11085;BME280;5596;46.826;8.650;2023-05-29T09:58:44;96080.78;;;22.15;80.36
11085;BME280;5596;46.826;8.650;2023-05-29T10:01:12;96086.00;;;22.39;77.44
11085;BME280;5596;46.826;8.650;2023-05-29T10:03:41;96080.63;;;22.56;76.06
11085;BME280;5596;46.826;8.650;2023-05-29T10:06:08;96082.69;;;22.73;73.04
11085;BME280;5596;46.826;8.650;2023-05-29T10:08:37;96080.72;;;22.87;74.48
11085;BME280;5596;46.826;8.650;2023-05-29T10:11:04;96081.34;;;22.84;72.25
11085;BME280;5596;46.826;8.650;2023-05-29T10:13:35;96075.88;;;22.93;73.48
11085;BME280;5596;46.826;8.650;2023-05-29T10:16:05;96078.91;;;22.83;72.31
11085;BME280;5596;46.826;8.650;2023-05-29T10:18:35;96081.19;;;22.89;70.17
11085;BME280;5596;46.826;8.650;2023-05-29T10:21:03;96076.06;;;22.96;70.78
11085;BME280;5596;46.826;8.650;2023-05-29T10:23:31;96068.69;;;23.14;70.04
11085;BME280;5596;46.826;8.650;2023-05-29T10:26:02;96070.41;;;23.32;69.88
11085;BME280;5596;46.826;8.650;2023-05-29T10:28:33;96078.06;;;23.44;69.55
11085;BME280;5596;46.826;8.650;2023-05-29T10:31:05;96058.28;;;23.42;67.45
11085;BME280;5596;46.826;8.650;2023-05-29T10:33:42;96057.47;;;23.42;67.24
11085;BME280;5596;46.826;8.650;2023-05-29T10:36:12;96054.63;;;23.55;67.35
11085;BME280;5596;46.826;8.650;2023-05-29T10:38:40;96051.91;;;23.64;68.90
11085;BME280;5596;46.826;8.650;2023-05-29T10:43:54;96047.38;;;23.76;68.69
11085;BME280;5596;46.826;8.650;2023-05-29T10:46:22;96040.25;;;23.75;68.15
11085;BME280;5596;46.826;8.650;2023-05-29T10:49:15;96051.59;;;23.83;67.37
11085;BME280;5596;46.826;8.650;2023-05-29T10:51:42;96044.16;;;23.92;66.35
11085;BME280;5596;46.826;8.650;2023-05-29T10:54:09;96048.03;;;23.91;65.58
11085;BME280;5596;46.826;8.650;2023-05-29T10:56:36;96045.44;;;23.77;66.13
11085;BME280;5596;46.826;8.650;2023-05-29T10:59:03;96043.00;;;23.75;67.16
11085;BME280;5596;46.826;8.650;2023-05-29T11:01:32;96042.03;;;23.80;66.52
11085;BME280;5596;46.826;8.650;2023-05-29T11:06:45;96037.72;;;24.31;65.68
11085;BME280;5596;46.826;8.650;2023-05-29T11:09:25;96035.41;;;24.50;64.40
11085;BME280;5596;46.826;8.650;2023-05-29T11:14:46;96029.88;;;24.50;64.26
11085;BME280;5596;46.826;8.650;2023-05-29T11:17:32;96033.63;;;24.63;64.53
11085;BME280;5596;46.826;8.650;2023-05-29T11:20:02;96022.06;;;24.69;61.04
11085;BME280;5596;46.826;8.650;2023-05-29T11:22:34;96025.59;;;24.87;62.88
11085;BME280;5596;46.826;8.650;2023-05-29T11:25:06;96020.56;;;24.98;62.48
11085;BME280;5596;46.826;8.650;2023-05-29T11:27:33;96020.22;;;25.08;62.54
11085;BME280;5596;46.826;8.650;2023-05-29T11:30:01;96020.06;;;24.87;60.51
11085;BME280;5596;46.826;8.650;2023-05-29T11:32:28;96019.59;;;24.94;59.51
11085;BME280;5596;46.826;8.650;2023-05-29T11:34:57;96020.72;;;24.93;62.11
11085;BME280;5596;46.826;8.650;2023-05-29T11:37:26;96014.19;;;25.06;62.73
11085;BME280;5596;46.826;8.650;2023-05-29T11:39:53;96023.88;;;25.20;58.51
11085;BME280;5596;46.826;8.650;2023-05-29T11:42:21;96003.34;;;25.01;58.91
11085;BME280;5596;46.826;8.650;2023-05-29T11:44:50;96005.69;;;25.19;59.95
11085;BME280;5596;46.826;8.650;2023-05-29T11:47:18;96004.88;;;25.19;58.65
11085;BME280;5596;46.826;8.650;2023-05-29T11:49:45;95999.06;;;25.12;59.25
11085;BME280;5596;46.826;8.650;2023-05-29T11:52:13;95993.25;;;25.05;60.57
11085;BME280;5596;46.826;8.650;2023-05-29T11:54:42;96007.50;;;25.45;60.58
11085;BME280;5596;46.826;8.650;2023-05-29T11:57:16;96008.69;;;25.73;59.71
11085;BME280;5596;46.826;8.650;2023-05-29T11:59:43;96012.63;;;25.93;58.99
11085;BME280;5596;46.826;8.650;2023-05-29T12:02:10;96010.03;;;25.88;58.50
11085;BME280;5596;46.826;8.650;2023-05-29T12:04:37;96011.25;;;25.78;57.30
11085;BME280;5596;46.826;8.650;2023-05-29T12:07:17;96009.59;;;25.86;57.10
11085;BME280;5596;46.826;8.650;2023-05-29T12:09:44;96008.03;;;25.97;56.96
11085;BME280;5596;46.826;8.650;2023-05-29T12:12:12;96003.91;;;26.03;56.12
11085;BME280;5596;46.826;8.650;2023-05-29T12:14:40;96009.66;;;25.98;56.10
11085;BME280;5596;46.826;8.650;2023-05-29T12:17:07;96004.38;;;26.05;57.55
11085;BME280;5596;46.826;8.650;2023-05-29T12:19:34;96000.81;;;26.25;56.41
11085;BME280;5596;46.826;8.650;2023-05-29T12:22:01;96002.31;;;26.44;54.78
11085;BME280;5596;46.826;8.650;2023-05-29T12:24:30;96007.91;;;26.35;55.21
11085;BME280;5596;46.826;8.650;2023-05-29T12:26:57;96004.75;;;26.45;55.34
11085;BME280;5596;46.826;8.650;2023-05-29T12:29:29;96004.50;;;26.50;55.61
11085;BME280;5596;46.826;8.650;2023-05-29T12:31:57;95996.75;;;26.77;55.34
11085;BME280;5596;46.826;8.650;2023-05-29T12:34:24;95998.13;;;26.70;53.94
11085;BME280;5596;46.826;8.650;2023-05-29T12:36:50;95996.06;;;26.80;55.12
11085;BME280;5596;46.826;8.650;2023-05-29T12:39:17;95995.78;;;27.05;55.39
11085;BME280;5596;46.826;8.650;2023-05-29T12:41:45;95990.38;;;27.09;53.09
11085;BME280;5596;46.826;8.650;2023-05-29T12:44:13;95995.53;;;26.98;52.32
11085;BME280;5596;46.826;8.650;2023-05-29T12:46:41;95989.81;;;27.03;52.38
11085;BME280;5596;46.826;8.650;2023-05-29T12:49:12;95987.47;;;27.05;52.96
11085;BME280;5596;46.826;8.650;2023-05-29T12:51:40;95980.91;;;27.10;53.40
11085;BME280;5596;46.826;8.650;2023-05-29T12:54:06;95979.88;;;27.27;53.83
11085;BME280;5596;46.826;8.650;2023-05-29T12:56:33;95984.38;;;27.19;53.20
11085;BME280;5596;46.826;8.650;2023-05-29T12:59:01;95978.94;;;27.10;52.34
11085;BME280;5596;46.826;8.650;2023-05-29T13:01:28;95978.25;;;27.26;51.61
11085;BME280;5596;46.826;8.650;2023-05-29T13:03:55;95976.97;;;27.23;51.29
11085;BME280;5596;46.826;8.650;2023-05-29T13:06:22;95986.34;;;27.43;52.83
11085;BME280;5596;46.826;8.650;2023-05-29T13:08:48;95983.09;;;27.17;52.40
11085;BME280;5596;46.826;8.650;2023-05-29T13:11:16;95976.28;;;27.14;51.34
11085;BME280;5596;46.826;8.650;2023-05-29T13:13:43;95968.97;;;26.85;52.76
11085;BME280;5596;46.826;8.650;2023-05-29T13:16:11;95960.66;;;26.85;53.24
11085;BME280;5596;46.826;8.650;2023-05-29T13:18:38;95963.88;;;26.87;52.11
11085;BME280;5596;46.826;8.650;2023-05-29T13:21:05;95970.78;;;26.81;53.52
11085;BME280;5596;46.826;8.650;2023-05-29T13:23:32;95962.09;;;27.16;52.42